createdAt,value
2019-03-11T06:21:47.249Z,1010.24
2019-03-11T06:22:47.221Z,1010.24
2019-03-11T06:23:47.212Z,1010.27
2019-03-11T06:24:47.198Z,1010.12
2019-03-11T06:25:47.211Z,1010.28
2019-03-11T06:26:47.181Z,1010.25
2019-03-11T06:27:47.178Z,1010.30
2019-03-11T06:28:47.161Z,1010.18
2019-03-11T06:29:47.167Z,1010.27
2019-03-11T06:30:47.159Z,1010.32
2019-03-11T06:31:47.128Z,1010.30
2019-03-11T06:32:47.118Z,1010.39
2019-03-11T06:33:47.106Z,1010.32
2019-03-11T06:34:47.111Z,1010.35
2019-03-11T06:35:47.104Z,1010.38
2019-03-11T06:36:47.071Z,1010.33
2019-03-11T06:37:47.061Z,1010.37
2019-03-11T06:38:47.048Z,1010.33
2019-03-11T06:39:47.046Z,1010.40
2019-03-11T06:40:47.070Z,1010.37
2019-03-11T06:41:47.017Z,1010.41
2019-03-11T06:42:47.010Z,1010.41
2019-03-11T06:44:42.097Z,1010.31
2019-03-11T06:45:42.093Z,1010.30
2019-03-11T06:46:42.068Z,1010.32
2019-03-11T06:47:42.050Z,1010.34
2019-03-11T06:48:42.039Z,1010.37
2019-03-11T06:49:42.027Z,1010.38
2019-03-11T06:50:42.038Z,1010.35
2019-03-11T06:51:42.008Z,1010.30
2019-03-11T06:52:42.001Z,1010.36
2019-03-11T06:53:41.995Z,1010.37
2019-03-11T06:54:41.992Z,1010.35
2019-03-11T06:55:41.982Z,1010.44
2019-03-11T06:56:41.955Z,1010.44
2019-03-11T06:57:41.946Z,1010.48
2019-03-11T06:58:41.938Z,1010.52
2019-03-11T06:59:41.932Z,1010.46
2019-03-11T07:00:41.937Z,1010.41
2019-03-11T07:01:41.900Z,1010.36
2019-03-11T07:02:41.889Z,1010.44
2019-03-11T07:03:41.877Z,1010.45
2019-03-11T07:04:41.867Z,1010.50
2019-03-11T07:05:41.890Z,1010.43
2019-03-11T07:06:41.847Z,1010.60
2019-03-11T07:07:41.840Z,1010.45
2019-03-11T07:08:41.917Z,1010.51
2019-03-11T07:09:41.813Z,1010.47
2019-03-11T07:10:41.827Z,1010.59
2019-03-11T07:11:41.805Z,1010.62
2019-03-11T07:12:41.781Z,1010.65
2019-03-11T07:13:41.770Z,1010.66
2019-03-11T07:14:41.763Z,1010.69
2019-03-11T07:15:41.769Z,1010.70
2019-03-11T07:16:41.742Z,1010.66
2019-03-11T07:17:41.741Z,1010.74
2019-03-11T07:18:41.717Z,1010.77
2019-03-11T07:19:41.706Z,1010.80
2019-03-11T07:20:41.699Z,1010.74
2019-03-11T07:21:41.711Z,1010.83
2019-03-11T07:22:41.678Z,1010.79
2019-03-11T07:23:41.682Z,1010.74
2019-03-11T07:24:41.658Z,1010.82
2019-03-11T07:25:41.666Z,1010.83
2019-03-11T07:26:41.631Z,1010.82
2019-03-11T07:27:41.621Z,1010.92
2019-03-11T07:28:41.613Z,1010.88
2019-03-11T07:29:41.606Z,1010.92
2019-03-11T07:30:41.620Z,1010.94
2019-03-11T07:31:41.577Z,1010.96
2019-03-11T07:32:41.566Z,1010.89
2019-03-11T07:33:41.557Z,1011.05
2019-03-11T07:34:41.549Z,1011.06
2019-03-11T07:35:41.560Z,1010.99
2019-03-11T07:36:41.530Z,1010.94
2019-03-11T07:37:41.515Z,1010.96
2019-03-11T07:38:41.505Z,1010.95
2019-03-11T07:39:41.492Z,1010.97
2019-03-11T07:40:41.504Z,1011.01
2019-03-11T07:41:41.479Z,1011.05
2019-03-11T07:42:41.467Z,1010.94
2019-03-11T07:43:41.451Z,1010.90
2019-03-11T07:44:41.444Z,1010.99
2019-03-11T07:45:41.461Z,1011.02
2019-03-11T07:46:41.423Z,1011.00
2019-03-11T07:47:41.407Z,1011.05
2019-03-11T07:48:41.395Z,1011.08
2019-03-11T07:49:41.402Z,1011.04
2019-03-11T07:50:41.378Z,1011.04
2019-03-11T07:51:41.386Z,1010.97
2019-03-11T07:52:41.353Z,1011.06
2019-03-11T07:53:41.341Z,1011.05
2019-03-11T07:54:41.350Z,1011.13
2019-03-11T07:55:41.332Z,1011.05
2019-03-11T07:56:41.332Z,1011.10
2019-03-11T07:57:41.305Z,1011.11
2019-03-11T07:58:41.292Z,1011.18
2019-03-11T07:59:41.298Z,1011.16
2019-03-11T08:00:41.268Z,1011.19
2019-03-11T08:01:41.280Z,1011.22
2019-03-11T08:02:41.246Z,1011.27
2019-03-11T08:03:41.234Z,1011.29
2019-03-11T08:04:41.227Z,1011.35
2019-03-11T08:05:41.214Z,1011.26
2019-03-11T08:06:41.226Z,1011.34
2019-03-11T08:07:41.192Z,1011.34
2019-03-11T08:08:41.192Z,1011.30
2019-03-11T08:09:41.177Z,1011.49
2019-03-11T08:10:41.161Z,1011.49
2019-03-11T08:11:41.325Z,1011.41
2019-03-11T08:12:41.140Z,1011.50
2019-03-11T08:13:41.128Z,1011.53
2019-03-11T08:14:41.127Z,1011.62
2019-03-11T08:15:41.110Z,1011.50
2019-03-11T08:16:41.114Z,1011.58
2019-03-11T08:17:41.099Z,1011.65
2019-03-11T08:18:41.074Z,1011.54
2019-03-11T08:19:41.063Z,1011.61
2019-03-11T08:20:41.108Z,1011.59
2019-03-11T08:21:41.062Z,1011.63
2019-03-11T08:22:41.031Z,1011.66
2019-03-11T08:23:41.020Z,1011.71
2019-03-11T08:24:41.013Z,1011.59
2019-03-11T08:25:40.999Z,1011.59
2019-03-11T08:26:41.015Z,1011.47
2019-03-11T08:27:40.976Z,1011.53
2019-03-11T08:28:40.966Z,1011.59
2019-03-11T08:29:40.955Z,1011.63
2019-03-11T08:30:40.996Z,1011.64
2019-03-11T08:31:40.954Z,1011.68
2019-03-11T08:32:40.933Z,1011.58
2019-03-11T08:33:40.913Z,1011.65
2019-03-11T08:34:40.901Z,1011.69
2019-03-11T08:35:40.891Z,1011.68
2019-03-11T08:36:40.912Z,1011.66
2019-03-11T08:37:40.874Z,1011.71
2019-03-11T08:38:40.866Z,1011.69
2019-03-11T08:39:40.857Z,1011.70
2019-03-11T08:40:42.803Z,1011.67
2019-03-11T08:41:40.854Z,1011.69
2019-03-11T08:42:40.819Z,1011.68
2019-03-11T08:43:40.813Z,1011.60
2019-03-11T08:44:40.795Z,1011.68
2019-03-11T08:45:40.790Z,1011.71
2019-03-11T08:46:40.793Z,1011.70
2019-03-11T08:47:40.764Z,1011.71
2019-03-11T08:48:40.753Z,1011.90
2019-03-11T08:49:40.746Z,1011.85
2019-03-11T08:50:40.730Z,1011.83
2019-03-11T08:51:40.759Z,1011.84
2019-03-11T08:52:40.712Z,1011.85
2019-03-11T08:53:40.701Z,1011.78
2019-03-11T08:54:40.689Z,1011.87
2019-03-11T08:55:40.682Z,1011.74
2019-03-11T08:56:40.706Z,1011.88
2019-03-11T08:57:41.493Z,1011.88
2019-03-11T08:58:40.652Z,1011.89
2019-03-11T08:59:40.636Z,1011.85
2019-03-11T09:00:40.630Z,1011.97
2019-03-11T09:01:40.640Z,1011.85
2019-03-11T09:02:40.605Z,1011.91
2019-03-11T09:03:41.117Z,1011.91
2019-03-11T09:04:40.628Z,1011.84
2019-03-11T09:05:40.575Z,1011.86
2019-03-11T09:06:40.588Z,1011.94
2019-03-11T09:07:40.554Z,1011.90
2019-03-11T09:08:40.548Z,1011.92
2019-03-11T09:09:40.550Z,1011.85
2019-03-11T09:10:40.525Z,1012.01
2019-03-11T09:11:40.534Z,1011.95
2019-03-11T09:12:40.504Z,1011.95
2019-03-11T09:13:40.494Z,1012.12
2019-03-11T09:14:40.490Z,1012.01
2019-03-11T09:15:40.479Z,1012.06
2019-03-11T09:16:40.474Z,1012.10
2019-03-11T09:17:40.471Z,1012.09
2019-03-11T09:18:40.441Z,1012.15
2019-03-11T09:19:40.430Z,1012.11
2019-03-11T09:20:40.431Z,1012.14
2019-03-11T09:21:40.438Z,1012.13
2019-03-11T09:22:40.417Z,1012.15
2019-03-11T09:23:40.410Z,1012.21
2019-03-11T09:24:40.395Z,1012.18
2019-03-11T09:25:40.365Z,1012.07
2019-03-11T09:26:40.393Z,1012.23
2019-03-11T09:27:40.350Z,1012.16
2019-03-11T09:28:40.345Z,1012.15
2019-03-11T09:29:40.325Z,1012.12
2019-03-11T09:30:40.325Z,1012.13
2019-03-11T09:31:40.304Z,1012.12
2019-03-11T09:32:40.336Z,1012.17
2019-03-11T09:33:40.286Z,1012.12
2019-03-11T09:34:40.271Z,1012.14
2019-03-11T09:35:40.266Z,1012.13
2019-03-11T09:36:40.321Z,1012.10
2019-03-11T09:37:40.289Z,1012.20
2019-03-11T09:38:40.230Z,1012.25
2019-03-11T09:39:40.222Z,1012.20
2019-03-11T09:40:40.212Z,1012.19
2019-03-11T09:41:40.208Z,1012.14
2019-03-11T09:42:40.214Z,1012.19
2019-03-11T09:43:40.184Z,1012.19
2019-03-11T09:44:40.166Z,1012.23
2019-03-11T09:45:40.162Z,1012.20
2019-03-11T09:46:40.150Z,1012.31
2019-03-11T09:47:40.156Z,1012.16
2019-03-11T09:48:40.128Z,1012.18
2019-03-11T09:49:40.116Z,1012.12
2019-03-11T09:50:40.178Z,1012.32
2019-03-11T09:51:40.096Z,1012.27
2019-03-11T09:52:40.110Z,1012.30
2019-03-11T09:53:40.073Z,1012.35
2019-03-11T09:54:40.088Z,1012.32
2019-03-11T09:55:40.054Z,1012.27
2019-03-11T09:56:43.643Z,1012.30
2019-03-11T09:57:40.051Z,1012.18
2019-03-11T09:58:40.028Z,1012.28
2019-03-11T09:59:40.011Z,1012.24
2019-03-11T10:00:40.002Z,1012.25
2019-03-11T10:01:39.991Z,1012.26
2019-03-11T10:02:51.222Z,1012.29
2019-03-11T10:03:40.967Z,1012.29
2019-03-11T10:04:39.959Z,1012.36
2019-03-11T10:05:39.948Z,1012.34
2019-03-11T10:06:39.948Z,1012.31
2019-03-11T10:07:39.991Z,1012.38
2019-03-11T10:08:39.987Z,1012.40
2019-03-11T10:09:39.907Z,1012.29
2019-03-11T10:10:39.895Z,1012.37
2019-03-11T10:11:39.888Z,1012.32
2019-03-11T10:12:39.909Z,1012.38
2019-03-11T10:13:39.863Z,1012.39
2019-03-11T10:14:39.857Z,1012.46
2019-03-11T10:15:39.844Z,1012.43
2019-03-11T10:16:39.830Z,1012.43
2019-03-11T10:17:39.847Z,1012.46
2019-03-11T10:18:39.812Z,1012.57
2019-03-11T10:19:39.803Z,1012.51
2019-03-11T10:20:39.788Z,1012.49
2019-03-11T10:21:39.783Z,1012.49
2019-03-11T10:22:39.795Z,1012.53
2019-03-11T10:23:39.756Z,1012.54
2019-03-11T10:24:39.754Z,1012.56
2019-03-11T10:25:39.736Z,1012.48
2019-03-11T10:26:39.725Z,1012.55
2019-03-11T10:27:39.733Z,1012.50
2019-03-11T10:28:39.720Z,1012.44
2019-03-11T10:29:39.693Z,1012.48
2019-03-11T10:30:39.685Z,1012.52
2019-03-11T10:31:39.672Z,1012.50
2019-03-11T10:32:40.955Z,1012.51
2019-03-11T10:33:39.654Z,1012.51
2019-03-11T10:34:39.648Z,1012.48
2019-03-11T10:35:39.635Z,1012.36
2019-03-11T10:36:39.619Z,1012.47
2019-03-11T10:37:39.635Z,1012.55
2019-03-11T10:38:39.597Z,1012.43
2019-03-11T10:39:39.587Z,1012.51
2019-03-11T10:40:39.588Z,1012.47
2019-03-11T10:41:39.572Z,1012.50
2019-03-11T10:42:39.577Z,1012.60
2019-03-11T10:43:39.547Z,1012.58
2019-03-11T10:44:39.540Z,1012.58
2019-03-11T10:45:39.525Z,1012.56
2019-03-11T10:46:39.515Z,1012.66
2019-03-11T10:47:39.533Z,1012.66
2019-03-11T10:48:39.511Z,1012.68
2019-03-11T10:49:39.482Z,1012.71
2019-03-11T10:50:39.470Z,1012.73
2019-03-11T10:51:39.459Z,1012.74
2019-03-11T10:52:39.488Z,1012.83
2019-03-11T10:53:39.437Z,1012.91
2019-03-11T10:54:39.487Z,1013.04
2019-03-11T10:55:39.417Z,1013.08
2019-03-11T10:56:39.413Z,1013.12
2019-03-11T10:57:39.413Z,1013.14
2019-03-11T10:58:39.440Z,1013.16
2019-03-11T10:59:39.384Z,1013.10
2019-03-11T11:00:39.364Z,1013.09
2019-03-11T11:01:39.360Z,1013.05
2019-03-11T11:02:39.387Z,1013.17
2019-03-11T11:03:39.332Z,1013.10
2019-03-11T11:04:39.339Z,1013.13
2019-03-11T11:05:39.339Z,1013.14
2019-03-11T11:06:39.327Z,1013.18
2019-03-11T11:07:39.329Z,1013.13
2019-03-11T11:08:39.287Z,1013.10
2019-03-11T11:09:39.270Z,1013.13
2019-03-11T11:10:39.262Z,1013.14
2019-03-11T11:11:39.263Z,1013.15
2019-03-11T11:12:39.241Z,1013.17
2019-03-11T11:13:39.249Z,1013.21
2019-03-11T11:14:39.230Z,1013.31
2019-03-11T11:15:39.251Z,1013.25
2019-03-11T11:16:39.249Z,1013.22
2019-03-11T11:17:39.186Z,1013.24
2019-03-11T11:18:39.196Z,1013.27
2019-03-11T11:19:39.165Z,1013.34
2019-03-11T11:20:39.195Z,1013.34
2019-03-11T11:21:39.175Z,1013.37
2019-03-11T11:22:39.131Z,1013.40
2019-03-11T11:23:39.144Z,1013.38
2019-03-11T11:24:39.110Z,1013.39
2019-03-11T11:25:39.099Z,1013.39
2019-03-11T11:26:39.088Z,1013.32
2019-03-11T11:27:39.080Z,1013.26
2019-03-11T11:28:39.096Z,1013.25
2019-03-11T11:29:39.060Z,1013.26
2019-03-11T11:30:39.050Z,1013.29
2019-03-11T11:31:39.041Z,1013.27
2019-03-11T11:32:39.025Z,1013.29
2019-03-11T11:33:39.050Z,1013.36
2019-03-11T11:34:39.004Z,1013.30
2019-03-11T11:35:38.997Z,1013.29
2019-03-11T11:36:38.992Z,1013.31
2019-03-11T11:37:38.979Z,1013.35
2019-03-11T11:38:38.987Z,1013.34
2019-03-11T11:39:38.960Z,1013.37
2019-03-11T11:40:38.964Z,1013.37
2019-03-11T11:41:38.932Z,1013.44
2019-03-11T11:42:38.925Z,1013.17
2019-03-11T11:43:38.928Z,1013.30
2019-03-11T11:44:38.897Z,1013.65
2019-03-11T11:45:38.894Z,1013.54
2019-03-11T11:46:38.875Z,1013.49
2019-03-11T11:47:38.868Z,1013.51
2019-03-11T11:48:38.885Z,1013.37
2019-03-11T11:49:38.880Z,1013.39
2019-03-11T11:50:38.851Z,1013.18
2019-03-11T11:51:38.822Z,1013.49
2019-03-11T11:52:38.810Z,1013.62
2019-03-11T11:53:38.815Z,1013.11
2019-03-11T11:54:38.788Z,1013.48
2019-03-11T11:55:38.806Z,1013.41
2019-03-11T11:56:38.765Z,1013.04
2019-03-11T11:57:38.770Z,1013.49
2019-03-11T11:58:40.683Z,1013.59
2019-03-11T11:59:38.739Z,1013.52
2019-03-11T12:00:38.723Z,1013.15
2019-03-11T12:01:38.713Z,1013.61
2019-03-11T12:02:38.701Z,1013.75
2019-03-11T12:03:38.720Z,1013.61
2019-03-11T12:04:38.687Z,1013.38
2019-03-11T12:05:38.671Z,1013.49
2019-03-11T12:06:38.669Z,1013.24
2019-03-11T12:07:38.652Z,1013.18
2019-03-11T12:08:38.659Z,1013.22
2019-03-11T12:09:38.625Z,1013.25
2019-03-11T12:10:38.621Z,1013.17
2019-03-11T12:11:38.607Z,1013.18
2019-03-11T12:12:38.591Z,1013.28
2019-03-11T12:13:38.625Z,1013.38
2019-03-11T12:14:38.571Z,1013.44
2019-03-11T12:15:38.560Z,1013.46
2019-03-11T12:16:38.569Z,1013.36
2019-03-11T12:17:38.540Z,1013.50
2019-03-11T12:18:38.549Z,1013.49
2019-03-11T12:19:38.517Z,1013.73
2019-03-11T12:20:38.505Z,1013.81
2019-03-11T12:21:38.503Z,1013.76
2019-03-11T12:22:38.496Z,1013.44
2019-03-11T12:23:46.258Z,1013.80
2019-03-11T12:24:39.463Z,1013.71
2019-03-11T12:25:38.451Z,1013.79
2019-03-11T12:26:38.439Z,1013.63
2019-03-11T12:27:38.441Z,1013.74
2019-03-11T12:28:38.438Z,1013.61
2019-03-11T12:29:38.406Z,1013.71
2019-03-11T12:30:38.398Z,1013.66
2019-03-11T12:31:38.410Z,1013.69
2019-03-11T12:32:38.378Z,1013.64
2019-03-11T12:33:38.385Z,1013.33
2019-03-11T12:34:38.365Z,1013.39
2019-03-11T12:35:38.349Z,1013.48
2019-03-11T12:36:38.351Z,1013.62
2019-03-11T12:37:38.322Z,1013.23
2019-03-11T12:38:38.337Z,1013.16
2019-03-11T12:39:38.299Z,1013.30
2019-03-11T12:40:38.296Z,1013.34
2019-03-11T12:41:38.284Z,1013.30
2019-03-11T12:42:38.270Z,1013.21
2019-03-11T12:43:38.278Z,1013.33
2019-03-11T12:44:38.244Z,1013.36
2019-03-11T12:45:38.244Z,1013.37
2019-03-11T12:46:38.232Z,1013.44
2019-03-11T12:47:38.217Z,1013.27
2019-03-11T12:48:38.235Z,1013.40
2019-03-11T12:49:38.190Z,1013.43
2019-03-11T12:50:38.179Z,1013.60
2019-03-11T12:51:48.923Z,1013.58
2019-03-11T12:52:39.170Z,1013.79
2019-03-11T12:53:38.152Z,1013.82
2019-03-11T12:54:38.158Z,1013.85
2019-03-11T12:55:38.128Z,1013.56
2019-03-11T12:56:38.117Z,1013.58
2019-03-11T12:57:38.107Z,1013.68
2019-03-11T12:58:41.912Z,1013.59
2019-03-11T12:59:40.790Z,1013.47
2019-03-11T13:00:38.074Z,1013.73
2019-03-11T13:01:38.070Z,1013.68
2019-03-11T13:02:38.050Z,1014.01
2019-03-11T13:03:38.042Z,1013.92
2019-03-11T13:04:38.055Z,1013.76
2019-03-11T13:05:38.025Z,1013.72
2019-03-11T13:06:38.011Z,1013.75
2019-03-11T13:07:38.829Z,1013.80
2019-03-11T13:08:37.988Z,1013.84
2019-03-11T13:09:37.997Z,1013.98
2019-03-11T13:10:37.971Z,1013.81
2019-03-11T13:11:37.983Z,1014.03
2019-03-11T13:12:37.972Z,1013.95
2019-03-11T13:13:37.931Z,1013.97
2019-03-11T13:14:37.945Z,1014.01
2019-03-11T13:15:37.915Z,1014.04
2019-03-11T13:16:37.921Z,1014.14
2019-03-11T13:17:37.889Z,1014.05
2019-03-11T13:18:37.877Z,1014.06
2019-03-11T13:19:37.886Z,1014.04
2019-03-11T13:20:37.855Z,1013.96
2019-03-11T13:21:37.850Z,1014.00
2019-03-11T13:22:37.847Z,1013.97
2019-03-11T13:23:37.827Z,1013.90
2019-03-11T13:24:37.845Z,1014.06
2019-03-11T13:25:37.805Z,1014.01
2019-03-11T13:26:37.794Z,1014.01
2019-03-11T13:27:37.799Z,1013.93
2019-03-11T13:28:37.775Z,1014.02
2019-03-11T13:29:37.783Z,1014.00
2019-03-11T13:30:37.748Z,1014.06
2019-03-11T13:31:37.737Z,1013.94
2019-03-11T13:32:37.731Z,1014.03
2019-03-11T13:33:37.713Z,1014.13
2019-03-11T13:34:37.721Z,1014.05
2019-03-11T13:35:37.710Z,1013.92
2019-03-11T13:36:37.681Z,1013.85
2019-03-11T13:37:37.677Z,1014.01
2019-03-11T13:38:37.666Z,1014.11
2019-03-11T13:39:37.674Z,1014.13
2019-03-11T13:40:37.631Z,1014.09
2019-03-11T13:41:37.627Z,1014.14
2019-03-11T13:42:37.610Z,1014.19
2019-03-11T13:43:37.599Z,1014.30
2019-03-11T13:44:37.611Z,1014.38
2019-03-11T13:45:37.585Z,1014.30
2019-03-11T13:46:37.576Z,1014.27
2019-03-11T13:47:37.563Z,1014.27
2019-03-11T13:48:37.550Z,1014.28
2019-03-11T13:49:37.565Z,1014.45
2019-03-11T13:50:37.522Z,1014.23
2019-03-11T13:51:37.512Z,1014.44
2019-03-11T13:52:37.499Z,1014.39
2019-03-11T13:53:37.493Z,1014.38
2019-03-11T13:54:37.502Z,1014.34
2019-03-11T13:55:37.475Z,1014.46
2019-03-11T13:56:37.461Z,1014.50
2019-03-11T13:57:37.447Z,1014.36
2019-03-11T13:58:37.437Z,1014.50
2019-03-11T13:59:37.450Z,1014.62
2019-03-11T14:00:37.413Z,1014.55
2019-03-11T14:01:38.177Z,1014.49
2019-03-11T14:02:37.394Z,1014.52
2019-03-11T14:03:37.385Z,1014.62
2019-03-11T14:04:37.391Z,1014.69
2019-03-11T14:05:37.358Z,1014.54
2019-03-11T14:06:37.350Z,1014.68
2019-03-11T14:07:37.338Z,1014.60
2019-03-11T14:08:37.329Z,1014.62
2019-03-11T14:09:37.346Z,1014.61
2019-03-11T14:10:37.314Z,1014.72
2019-03-11T14:11:37.304Z,1014.66
2019-03-11T14:12:37.282Z,1014.71
2019-03-11T14:13:37.273Z,1014.64
2019-03-11T14:14:37.281Z,1014.71
2019-03-11T14:15:37.260Z,1014.71
2019-03-11T14:16:37.250Z,1014.69
2019-03-11T14:17:37.240Z,1014.60
2019-03-11T14:18:37.216Z,1014.70
2019-03-11T14:19:37.236Z,1014.75
2019-03-11T14:20:37.200Z,1014.70
2019-03-11T14:21:37.190Z,1014.77
2019-03-11T14:22:37.173Z,1014.68
2019-03-11T14:23:37.164Z,1014.73
2019-03-11T14:24:37.171Z,1014.70
2019-03-11T14:25:37.141Z,1014.76
2019-03-11T14:26:37.141Z,1014.70
2019-03-11T14:27:37.123Z,1014.78
2019-03-11T14:28:37.124Z,1014.43
2019-03-11T14:29:37.136Z,1014.64
2019-03-11T14:30:37.087Z,1014.63
2019-03-11T14:31:37.085Z,1014.76
2019-03-11T14:32:37.072Z,1014.81
2019-03-11T14:33:37.060Z,1014.69
2019-03-11T14:34:37.048Z,1014.84
2019-03-11T14:35:37.052Z,1014.74
2019-03-11T14:36:37.023Z,1014.76
2019-03-11T14:37:37.010Z,1014.74
2019-03-11T14:38:37.007Z,1014.79
2019-03-11T14:39:36.997Z,1014.74
2019-03-11T14:40:37.004Z,1014.86
2019-03-11T14:41:36.968Z,1014.89
2019-03-11T14:42:36.958Z,1014.79
2019-03-11T14:43:36.945Z,1014.81
2019-03-11T14:44:36.946Z,1014.72
2019-03-11T14:45:36.946Z,1014.84
2019-03-11T14:46:36.914Z,1014.81
2019-03-11T14:47:36.904Z,1014.77
2019-03-11T14:48:36.893Z,1014.84
2019-03-11T14:49:36.884Z,1014.80
2019-03-11T14:50:36.896Z,1015.02
2019-03-11T14:51:36.979Z,1014.95
2019-03-11T14:52:36.886Z,1015.00
2019-03-11T14:53:36.838Z,1014.94
2019-03-11T14:54:36.835Z,1014.97
2019-03-11T14:55:36.838Z,1015.06
2019-03-11T14:56:36.810Z,1015.18
2019-03-11T14:57:36.805Z,1015.15
2019-03-11T14:58:36.785Z,1015.18
2019-03-11T14:59:36.789Z,1015.01
2019-03-11T15:00:36.782Z,1015.13
2019-03-11T15:01:36.756Z,1015.03
2019-03-11T15:02:36.756Z,1015.04
2019-03-11T15:03:36.731Z,1015.07
2019-03-11T15:04:36.720Z,1015.14
2019-03-11T15:05:36.738Z,1015.14
2019-03-11T15:06:36.700Z,1015.16
2019-03-11T15:07:36.714Z,1015.13
2019-03-11T15:08:37.554Z,1015.19
2019-03-11T15:09:36.668Z,1015.21
2019-03-11T15:10:36.681Z,1015.18
2019-03-11T15:11:36.745Z,1015.08
2019-03-11T15:12:36.635Z,1015.12
2019-03-11T15:13:36.626Z,1015.11
2019-03-11T15:14:36.618Z,1015.09
2019-03-11T15:15:36.628Z,1015.10
2019-03-11T15:16:36.591Z,1015.07
2019-03-11T15:17:36.626Z,1015.03
2019-03-11T15:18:36.577Z,1015.09
2019-03-11T15:19:36.564Z,1015.04
2019-03-11T15:20:36.595Z,1015.08
2019-03-11T15:21:36.546Z,1015.11
2019-03-11T15:22:36.533Z,1015.10
2019-03-11T15:23:36.519Z,1014.99
2019-03-11T15:24:36.509Z,1015.04
2019-03-11T15:25:36.521Z,1015.11
2019-03-11T15:26:36.489Z,1015.12
2019-03-11T15:27:36.497Z,1015.14
2019-03-11T15:28:36.467Z,1015.12
2019-03-11T15:29:36.460Z,1015.03
2019-03-11T15:30:36.468Z,1015.08
2019-03-11T15:31:36.437Z,1015.15
2019-03-11T15:32:36.427Z,1015.13
2019-03-11T15:33:36.424Z,1015.24
2019-03-11T15:34:36.432Z,1015.13
2019-03-11T15:35:36.420Z,1015.18
2019-03-11T15:36:36.382Z,1015.26
2019-03-11T15:37:36.401Z,1015.20
2019-03-11T15:38:36.359Z,1015.23
2019-03-11T15:39:36.358Z,1015.18
2019-03-11T15:40:36.372Z,1015.24
2019-03-11T15:41:36.330Z,1015.24
2019-03-11T15:42:36.327Z,1015.31
2019-03-11T15:43:36.304Z,1015.41
2019-03-11T15:44:36.316Z,1015.28
2019-03-11T15:45:38.980Z,1015.39
2019-03-11T15:46:39.444Z,1015.34
2019-03-11T15:47:36.284Z,1015.11
2019-03-11T15:48:36.271Z,1015.08
2019-03-11T15:49:36.240Z,1015.19
2019-03-11T15:50:36.257Z,1015.28
2019-03-11T15:51:37.061Z,1015.40
2019-03-11T15:52:36.207Z,1015.47
2019-03-11T15:53:36.206Z,1015.44
2019-03-11T15:54:36.186Z,1015.43
2019-03-11T15:55:36.204Z,1015.49
2019-03-11T15:56:36.168Z,1015.57
2019-03-11T15:57:39.157Z,1015.45
2019-03-11T15:58:36.167Z,1015.47
2019-03-11T15:59:36.149Z,1015.48
2019-03-11T16:00:36.167Z,1015.45
2019-03-11T16:01:36.111Z,1015.36
2019-03-11T16:02:36.102Z,1015.41
2019-03-11T16:03:36.723Z,1015.33
2019-03-11T16:04:36.079Z,1015.41
2019-03-11T16:05:36.133Z,1015.32
2019-03-11T16:06:36.078Z,1015.46
2019-03-11T16:07:36.063Z,1015.39
2019-03-11T16:08:36.036Z,1015.55
2019-03-11T16:09:36.030Z,1015.48
2019-03-11T16:10:36.018Z,1015.47
2019-03-11T16:11:36.026Z,1015.54
2019-03-11T16:12:36.005Z,1015.54
2019-03-11T16:13:35.984Z,1015.57
2019-03-11T16:14:35.981Z,1015.56
2019-03-11T16:15:35.972Z,1015.71
2019-03-11T16:16:36.000Z,1015.64
2019-03-11T16:17:35.943Z,1015.61
2019-03-11T16:18:35.940Z,1015.64
2019-03-11T16:19:35.932Z,1015.68
2019-03-11T16:20:35.919Z,1015.76
2019-03-11T16:21:35.925Z,1015.71
2019-03-11T16:22:35.898Z,1015.76
2019-03-11T16:23:35.882Z,1015.78
2019-03-11T16:24:35.872Z,1015.51
2019-03-11T16:25:35.860Z,1015.67
2019-03-11T16:26:35.857Z,1015.75
2019-03-11T16:27:35.865Z,1015.93
2019-03-11T16:28:35.828Z,1015.74
2019-03-11T16:29:35.817Z,1015.69
2019-03-11T16:30:35.807Z,1015.82
2019-03-11T16:31:35.814Z,1015.87
2019-03-11T16:32:37.288Z,1015.79
2019-03-11T16:33:35.793Z,1015.87
2019-03-11T16:34:35.766Z,1015.96
2019-03-11T16:35:35.756Z,1015.96
2019-03-11T16:36:35.764Z,1015.97
2019-03-11T16:37:35.731Z,1016.00
2019-03-11T16:38:35.783Z,1016.04
2019-03-11T16:39:35.730Z,1016.13
2019-03-11T16:40:35.710Z,1016.03
2019-03-11T16:41:35.723Z,1015.97
2019-03-11T16:42:35.688Z,1016.20
2019-03-11T16:43:35.672Z,1016.13
2019-03-11T16:44:35.661Z,1015.98
2019-03-11T16:45:35.663Z,1016.08
2019-03-11T16:46:35.657Z,1016.14
2019-03-11T16:47:35.624Z,1016.22
2019-03-11T16:48:35.641Z,1016.14
2019-03-11T16:49:35.603Z,1016.26
2019-03-11T16:50:35.598Z,1016.21
2019-03-11T16:51:35.605Z,1016.25
2019-03-11T16:52:35.586Z,1016.22
2019-03-11T16:53:35.577Z,1016.15
2019-03-11T16:54:35.550Z,1016.34
2019-03-11T16:55:35.542Z,1016.31
2019-03-11T16:56:35.551Z,1016.38
2019-03-11T16:57:35.527Z,1016.42
2019-03-11T16:58:35.507Z,1016.33
2019-03-11T16:59:35.498Z,1016.34
2019-03-11T17:00:35.557Z,1016.55
2019-03-11T17:01:35.497Z,1016.36
2019-03-11T17:02:35.474Z,1016.33
2019-03-11T17:03:35.456Z,1016.23
2019-03-11T17:04:35.445Z,1016.30
2019-03-11T17:05:35.439Z,1016.35
2019-03-11T17:06:35.446Z,1016.42
2019-03-11T17:07:35.414Z,1016.35
2019-03-11T17:08:35.430Z,1016.47
2019-03-11T17:09:35.393Z,1016.45
2019-03-11T17:10:35.393Z,1016.43
2019-03-11T17:11:35.402Z,1016.40
2019-03-11T17:12:35.358Z,1016.41
2019-03-11T17:13:35.352Z,1016.55
2019-03-11T17:14:35.343Z,1016.55
2019-03-11T17:15:35.342Z,1016.43
2019-03-11T17:16:35.347Z,1016.39
2019-03-11T17:17:35.314Z,1016.39
2019-03-11T17:18:35.303Z,1016.22
2019-03-11T17:19:35.293Z,1016.50
2019-03-11T17:20:35.340Z,1016.45
2019-03-11T17:21:35.292Z,1016.49
2019-03-11T17:22:35.268Z,1016.43
2019-03-11T17:23:35.254Z,1016.36
2019-03-11T17:24:35.241Z,1016.43
2019-03-11T17:25:35.225Z,1016.56
2019-03-11T17:26:35.253Z,1016.53
2019-03-11T17:27:35.241Z,1016.51
2019-03-11T17:28:35.210Z,1016.62
2019-03-11T17:29:35.185Z,1016.49
2019-03-11T17:30:35.178Z,1016.66
2019-03-11T17:31:35.224Z,1016.60
2019-03-11T17:32:35.155Z,1016.60
2019-03-11T17:33:35.147Z,1016.81
2019-03-11T17:34:35.140Z,1016.72
2019-03-11T17:35:37.559Z,1016.66
2019-03-11T17:36:35.173Z,1016.82
2019-03-11T17:37:35.102Z,1016.60
2019-03-11T17:38:35.101Z,1016.93
2019-03-11T17:39:35.089Z,1016.78
2019-03-11T17:40:35.086Z,1016.60
2019-03-11T17:41:35.061Z,1016.83
2019-03-11T17:42:35.082Z,1016.94
2019-03-11T17:43:35.141Z,1016.89
2019-03-11T17:44:35.050Z,1016.86
2019-03-11T17:45:35.035Z,1016.89
2019-03-11T17:46:35.013Z,1016.66
2019-03-11T17:47:35.026Z,1016.99
2019-03-11T17:48:35.001Z,1016.97
2019-03-11T17:49:34.978Z,1016.88
2019-03-11T17:50:34.975Z,1017.10
2019-03-11T17:51:34.964Z,1017.07
2019-03-11T17:52:34.980Z,1017.10
2019-03-11T17:53:34.937Z,1016.90
2019-03-11T17:54:34.932Z,1016.97
2019-03-11T17:55:34.919Z,1017.12
2019-03-11T17:56:34.908Z,1017.19
2019-03-11T17:57:34.935Z,1017.18
2019-03-11T17:58:34.886Z,1017.25
2019-03-11T17:59:34.873Z,1017.34
2019-03-11T18:00:34.877Z,1017.32
2019-03-11T18:01:34.854Z,1017.40
2019-03-11T18:02:34.878Z,1017.43
2019-03-11T18:03:34.832Z,1017.40
2019-03-11T18:04:34.835Z,1017.47
2019-03-11T18:05:34.825Z,1017.48
2019-03-11T18:06:34.814Z,1017.44
2019-03-11T18:07:34.810Z,1017.45
2019-03-11T18:08:34.787Z,1017.59
2019-03-11T18:09:34.777Z,1017.60
2019-03-11T18:10:34.767Z,1017.65
2019-03-11T18:11:34.759Z,1017.63
2019-03-11T18:12:34.777Z,1017.68
2019-03-11T18:13:34.731Z,1017.68
2019-03-11T18:14:34.739Z,1017.68
2019-03-11T18:15:34.717Z,1017.72
2019-03-11T18:16:34.700Z,1017.84
2019-03-11T18:17:34.712Z,1017.76
2019-03-11T18:18:34.677Z,1017.87
2019-03-11T18:19:34.685Z,1017.72
2019-03-11T18:20:34.698Z,1017.72
2019-03-11T18:21:34.646Z,1017.78
2019-03-11T18:22:34.660Z,1017.76
2019-03-11T18:23:34.664Z,1017.92
2019-03-11T18:24:34.619Z,1017.93
2019-03-11T18:25:34.643Z,1017.96
2019-03-11T18:26:34.635Z,1017.93
2019-03-11T18:27:34.623Z,1017.99